Kansas City, Missouri
Traffic Map
Current Weather Conditions
Kansas City, Missouri
Clear
Clear
77°
Feels Like: 79°
Wind Chill: 77° Ceiling: Unl
Heat Index: 79° Visibility: 10mi
Dew Point: 63° Wind: 12mph
Humidity: 62% Direction: 170° (S)
Pressure: 29.98in Gusts: 23mph
Raw Report DataKMKC 302154Z 17010G20KT 10SM CLR 25/17 A2998 RMK AO2 SLP147 T02500172
Traffic Incident Summary
Active as of:
Severity:
Category:
InformationThere was an issue retrieving the traffic information for this location. Please try a different location or try again shortly.
Advertisements
Track Severe Weather on mobile